Time;durP1;ratioP1;P1;durP2;ratioP2;P2;SDS_P1;SDS_P2;PMS_P1;PMS_P2;Temp;Humidity;BMP_temperature;BMP_pressure;BME280_temperature;BME280_humidity;BME280_pressure;Samples;Min_cycle;Max_cycle;Signal;HPM_P1;HPM_P2
2022/07/01 00:00:31;;;;;;;11.90;5.75;;;;;;;;;;4788260;29;20058;-68
2022/07/01 00:03:02;;;;;;;13.80;6.10;;;;;;;;;;4803129;29;20405;-68
2022/07/01 00:05:32;;;;;;;11.70;6.18;;;;;;;;;;4774052;29;20054;-68
2022/07/01 00:08:03;;;;;;;12.73;6.13;;;;;;;;;;4803036;29;20063;-68
2022/07/01 00:10:35;;;;;;;15.00;6.07;;;;;;;;;;4803059;29;20156;-68
2022/07/01 00:13:06;;;;;;;11.52;5.85;;;;;;;;;;4784750;30;20127;-69
2022/07/01 00:15:36;;;;;;;14.68;6.13;;;;;;;;;;4740869;30;20060;-68
2022/07/01 00:18:07;;;;;;;13.10;6.53;;;;;;;;;;4772833;29;20054;-68
2022/07/01 00:20:37;;;;;;;14.70;5.60;;;;;;;;;;4802935;29;20058;-68
2022/07/01 00:23:08;;;;;;;12.82;6.53;;;;;;;;;;4775713;29;20059;-68
2022/07/01 00:25:38;;;;;;;13.00;6.15;;;;;;;;;;4823801;29;20467;-68
2022/07/01 00:28:08;;;;;;;13.07;6.40;;;;;;;;;;4839183;29;20058;-68
2022/07/01 00:30:39;;;;;;;13.77;6.15;;;;;;;;;;4839310;29;20066;-68
2022/07/01 00:33:09;;;;;;;14.05;6.35;;;;;;;;;;4784586;30;20063;-68
2022/07/01 00:35:40;;;;;;;13.32;6.78;;;;;;;;;;4784676;30;20066;-68
2022/07/01 00:38:11;;;;;;;16.00;6.60;;;;;;;;;;4768639;30;20066;-68
2022/07/01 00:40:41;;;;;;;16.75;7.00;;;;;;;;;;4784673;30;20086;-68
2022/07/01 00:43:11;;;;;;;15.60;6.97;;;;;;;;;;4784590;30;20082;-68
2022/07/01 00:45:47;;;;;;;15.20;6.90;;;;;;;;;;4784504;30;20067;-68
2022/07/01 00:48:21;;;;;;;15.30;7.03;;;;;;;;;;4784346;30;20060;-68
2022/07/01 00:50:52;;;;;;;16.27;7.05;;;;;;;;;;4789661;29;20062;-68
2022/07/01 00:53:23;;;;;;;12.18;6.78;;;;;;;;;;4820631;29;20543;-68
2022/07/01 00:55:53;;;;;;;15.13;6.38;;;;;;;;;;4820463;29;20055;-68
2022/07/01 00:58:25;;;;;;;12.63;6.30;;;;;;;;;;4820588;29;20058;-68
2022/07/01 01:00:58;;;;;;;15.43;6.18;;;;;;;;;;4820584;29;20166;-68
2022/07/01 01:03:28;;;;;;;;;;;;;;;;;;4821294;29;20062;-68
2022/07/01 01:05:58;;;;;;;13.00;7.05;;;;;;;;;;4820734;29;19925;-68
2022/07/01 01:08:29;;;;;;;15.82;6.50;;;;;;;;;;4820590;29;20069;-68
2022/07/01 01:11:00;;;;;;;12.77;5.90;;;;;;;;;;4831629;29;20050;-68
2022/07/01 01:13:30;;;;;;;16.30;6.63;;;;;;;;;;4853768;29;20495;-68
2022/07/01 01:16:01;;;;;;;13.05;6.45;;;;;;;;;;4849292;29;20053;-68
2022/07/01 01:18:31;;;;;;;13.80;6.25;;;;;;;;;;4811525;29;20069;-68
2022/07/01 01:21:02;;;;;;;12.07;6.35;;;;;;;;;;4841600;29;20391;-68
2022/07/01 01:23:33;;;;;;;17.98;6.05;;;;;;;;;;4856537;29;20050;-68
2022/07/01 01:26:03;;;;;;;13.48;6.88;;;;;;;;;;4856564;29;20061;-68
2022/07/01 01:28:33;;;;;;;12.98;6.55;;;;;;;;;;4856837;29;20056;-68
2022/07/01 01:31:02;;;;;;;16.35;6.45;;;;;;;;;;4856757;29;20058;-68
2022/07/01 01:33:33;;;;;;;15.80;6.07;;;;;;;;;;4867487;29;20065;-68
2022/07/01 01:36:05;;;;;;;16.23;6.85;;;;;;;;;;4837833;29;20057;-68
2022/07/01 01:38:36;;;;;;;15.38;6.50;;;;;;;;;;4823226;29;20062;-68
2022/07/01 01:41:09;;;;;;;12.30;6.45;;;;;;;;;;4838025;29;20076;-68
2022/07/01 01:43:39;;;;;;;13.35;6.80;;;;;;;;;;4808065;29;20515;-68
2022/07/01 01:46:09;;;;;;;15.40;6.72;;;;;;;;;;4819789;29;20098;-68
2022/07/01 01:48:40;;;;;;;16.58;6.70;;;;;;;;;;4802368;29;20170;-68
2022/07/01 01:51:10;;;;;;;17.90;6.63;;;;;;;;;;4805412;29;20071;-68
2022/07/01 01:53:40;;;;;;;13.45;6.45;;;;;;;;;;4805304;29;20522;-68
2022/07/01 01:56:10;;;;;;;14.82;6.93;;;;;;;;;;4804956;29;20071;-68
2022/07/01 01:58:44;;;;;;;14.90;6.10;;;;;;;;;;4805270;29;20074;-68
2022/07/01 02:01:14;;;;;;;15.65;5.90;;;;;;;;;;4790442;29;20541;-68
2022/07/01 02:03:46;;;;;;;14.05;6.38;;;;;;;;;;4805312;29;20511;-68
2022/07/01 02:06:19;;;;;;;14.20;6.45;;;;;;;;;;4768789;30;20433;-68
2022/07/01 02:08:49;;;;;;;11.18;5.72;;;;;;;;;;4739765;30;20067;-68
2022/07/01 02:11:20;;;;;;;14.93;6.28;;;;;;;;;;4754419;30;20059;-68
2022/07/01 02:13:50;;;;;;;12.00;5.85;;;;;;;;;;4759185;29;20062;-68
2022/07/01 02:16:20;;;;;;;15.43;5.68;;;;;;;;;;4789486;29;20078;-68
2022/07/01 02:18:50;;;;;;;12.27;5.68;;;;;;;;;;4804914;29;20428;-68
2022/07/01 02:21:21;;;;;;;12.65;5.43;;;;;;;;;;4804773;29;20087;-68
2022/07/01 02:23:52;;;;;;;12.93;5.78;;;;;;;;;;4804819;29;20058;-68
2022/07/01 02:26:22;;;;;;;11.63;6.00;;;;;;;;;;4824052;29;20054;-68
2022/07/01 02:28:52;;;;;;;12.00;5.80;;;;;;;;;;4841110;29;20062;-68
2022/07/01 02:31:23;;;;;;;13.10;5.15;;;;;;;;;;4841058;29;20135;-68
2022/07/01 02:33:53;;;;;;;10.73;5.35;;;;;;;;;;4795847;29;20501;-68
2022/07/01 02:36:23;;;;;;;12.80;5.20;;;;;;;;;;4840825;29;20049;-68
2022/07/01 02:38:54;;;;;;;11.65;5.65;;;;;;;;;;4841072;29;20054;-68
2022/07/01 02:41:24;;;;;;;12.38;5.95;;;;;;;;;;4840846;29;20066;-68
2022/07/01 02:43:54;;;;;;;13.30;6.47;;;;;;;;;;4805172;29;20061;-68
2022/07/01 02:46:24;;;;;;;12.07;6.28;;;;;;;;;;4813781;29;20057;-68
2022/07/01 02:48:55;;;;;;;15.07;5.82;;;;;;;;;;4859250;29;20154;-68
2022/07/01 02:51:25;;;;;;;10.77;5.72;;;;;;;;;;4828360;29;20165;-68
2022/07/01 02:53:55;;;;;;;13.27;5.60;;;;;;;;;;4858405;29;20081;-68
2022/07/01 02:56:25;;;;;;;12.80;5.60;;;;;;;;;;4846787;29;20064;-68
2022/07/01 02:58:55;;;;;;;15.88;5.22;;;;;;;;;;4846850;29;20731;-68
2022/07/01 03:01:26;;;;;;;12.07;5.22;;;;;;;;;;4857823;29;20064;-68
2022/07/01 03:03:56;;;;;;;12.18;5.45;;;;;;;;;;4828354;29;20667;-68
2022/07/01 03:06:27;;;;;;;11.60;5.80;;;;;;;;;;4828139;29;20060;-68
2022/07/01 03:08:57;;;;;;;10.18;5.43;;;;;;;;;;4828150;29;20076;-68
2022/07/01 03:11:28;;;;;;;12.60;5.55;;;;;;;;;;4858876;29;20061;-68
2022/07/01 03:13:59;;;;;;;10.18;4.95;;;;;;;;;;4858845;29;20081;-68
2022/07/01 03:16:28;;;;;;;9.90;5.13;;;;;;;;;;4859015;29;20053;-68
2022/07/01 03:18:59;;;;;;;10.15;4.60;;;;;;;;;;4840138;29;20061;-68
2022/07/01 03:21:29;;;;;;;14.75;5.25;;;;;;;;;;4840353;29;20066;-68
2022/07/01 03:24:00;;;;;;;10.68;4.95;;;;;;;;;;4821598;29;20054;-68
2022/07/01 03:26:30;;;;;;;13.93;5.43;;;;;;;;;;4818150;29;20412;-68
2022/07/01 03:29:07;;;;;;;14.00;4.85;;;;;;;;;;4773343;29;20520;-68
2022/07/01 03:31:37;;;;;;;9.77;4.38;;;;;;;;;;4788801;29;20067;-68
2022/07/01 03:34:07;;;;;;;10.43;4.93;;;;;;;;;;4803740;29;20086;-67
2022/07/01 03:36:37;;;;;;;9.38;4.75;;;;;;;;;;4803649;29;20070;-68
2022/07/01 03:39:08;;;;;;;10.25;5.20;;;;;;;;;;4812806;29;20063;-68
2022/07/01 03:41:38;;;;;;;12.18;4.80;;;;;;;;;;4791449;29;20164;-68
2022/07/01 03:44:08;;;;;;;10.85;5.00;;;;;;;;;;4821252;29;20054;-68
2022/07/01 03:46:38;;;;;;;12.32;5.20;;;;;;;;;;4821671;29;20062;-68
2022/07/01 03:49:08;;;;;;;14.13;5.38;;;;;;;;;;4821188;29;20065;-68
2022/07/01 03:51:39;;;;;;;10.85;4.68;;;;;;;;;;4806948;29;20070;-68
2022/07/01 03:57:10;;;;;;;12.20;5.70;;;;;;;;;;4779406;29;20210;-67
2022/07/01 03:59:41;;;;;;;10.85;5.18;;;;;;;;;;4803176;29;20058;-67
2022/07/01 04:02:11;;;;;;;13.75;7.47;;;;;;;;;;4785597;29;20069;-67
2022/07/01 04:04:42;;;;;;;15.00;7.10;;;;;;;;;;4821385;29;20062;-68
2022/07/01 04:07:12;;;;;;;13.40;5.43;;;;;;;;;;4832936;29;20415;-67
2022/07/01 04:09:42;;;;;;;13.18;5.55;;;;;;;;;;4809379;29;20066;-68
2022/07/01 04:12:13;;;;;;;12.57;5.38;;;;;;;;;;4839211;29;20069;-67
2022/07/01 04:14:43;;;;;;;14.52;6.28;;;;;;;;;;4839381;29;20435;-67
2022/07/01 04:17:14;;;;;;;15.02;6.22;;;;;;;;;;4820879;29;20061;-68
2022/07/01 04:19:44;;;;;;;12.95;5.85;;;;;;;;;;4790752;29;20054;-67
2022/07/01 04:22:32;;;;;;;12.40;6.15;;;;;;;;;;4754167;30;20060;-67
2022/07/01 04:25:05;;;;;;;12.68;5.60;;;;;;;;;;4749170;30;20438;-68
2022/07/01 04:27:35;;;;;;;11.55;5.32;;;;;;;;;;4749010;30;20068;-68
2022/07/01 04:30:06;;;;;;;9.02;4.78;;;;;;;;;;4749297;30;20064;-67
2022/07/01 04:32:37;;;;;;;11.45;5.13;;;;;;;;;;4734748;30;20176;-68
2022/07/01 04:35:10;;;;;;;20.98;7.55;;;;;;;;;;4706373;30;20469;-67
2022/07/01 04:37:44;;;;;;;21.52;8.13;;;;;;;;;;4696738;30;20073;-68
2022/07/01 04:40:14;;;;;;;17.58;7.45;;;;;;;;;;4696636;30;20791;-68
2022/07/01 04:42:44;;;;;;;20.95;8.68;;;;;;;;;;4730768;30;21189;-67
2022/07/01 04:45:14;;;;;;;24.88;10.40;;;;;;;;;;4734107;30;20064;-67
2022/07/01 04:47:45;;;;;;;23.55;10.15;;;;;;;;;;4748789;30;20075;-67
2022/07/01 04:50:15;;;;;;;25.67;9.93;;;;;;;;;;4725285;30;20072;-67
2022/07/01 04:52:46;;;;;;;20.77;8.43;;;;;;;;;;4713689;30;20061;-67
2022/07/01 04:55:16;;;;;;;15.93;6.85;;;;;;;;;;4725239;30;20068;-67
2022/07/01 04:57:46;;;;;;;14.07;5.97;;;;;;;;;;4731307;30;20048;-67
2022/07/01 05:00:17;;;;;;;14.35;6.45;;;;;;;;;;4784693;29;20078;-67
2022/07/01 05:02:47;;;;;;;15.98;5.97;;;;;;;;;;4783456;29;20092;-67
2022/07/01 05:05:17;;;;;;;14.18;5.53;;;;;;;;;;4769181;30;20062;-67
2022/07/01 05:07:47;;;;;;;10.65;4.88;;;;;;;;;;4820051;29;20558;-67
2022/07/01 05:10:18;;;;;;;10.63;4.78;;;;;;;;;;4820586;29;20508;-67
2022/07/01 05:12:48;;;;;;;10.93;5.18;;;;;;;;;;4804532;29;20062;-67
2022/07/01 05:15:19;;;;;;;12.40;5.78;;;;;;;;;;4831473;29;20531;-67
2022/07/01 05:23:26;;;;;;;13.48;5.78;;;;;;;;;;4837960;29;20451;-67
2022/07/01 05:25:56;;;;;;;11.63;5.05;;;;;;;;;;4808048;29;20058;-67
2022/07/01 05:28:27;;;;;;;10.45;4.65;;;;;;;;;;4838296;29;20636;-68
2022/07/01 05:30:57;;;;;;;9.70;4.68;;;;;;;;;;4838501;29;20167;-67
2022/07/01 05:33:28;;;;;;;12.55;5.00;;;;;;;;;;4838204;29;20395;-67
2022/07/01 05:35:58;;;;;;;10.35;4.20;;;;;;;;;;4808028;29;20072;-67
2022/07/01 05:38:29;;;;;;;11.15;4.95;;;;;;;;;;4838131;29;20061;-68
2022/07/01 05:40:59;;;;;;;10.73;5.35;;;;;;;;;;4825320;29;20066;-68
2022/07/01 05:43:30;;;;;;;9.70;4.60;;;;;;;;;;4820126;29;20063;-68
2022/07/01 05:46:01;;;;;;;12.15;4.25;;;;;;;;;;4812539;29;20065;-67
2022/07/01 05:48:31;;;;;;;10.65;4.40;;;;;;;;;;4822828;29;20054;-68
2022/07/01 05:51:02;;;;;;;15.30;4.90;;;;;;;;;;4838400;29;20074;-68
2022/07/01 05:53:32;;;;;;;12.60;4.07;;;;;;;;;;4841705;29;20581;-68
2022/07/01 05:56:02;;;;;;;9.77;4.35;;;;;;;;;;4856518;29;20061;-68
2022/07/01 05:58:32;;;;;;;13.13;3.75;;;;;;;;;;4837742;29;20058;-68
2022/07/01 06:01:04;;;;;;;8.27;3.95;;;;;;;;;;4838245;29;20581;-68
2022/07/01 06:03:38;;;;;;;11.10;3.92;;;;;;;;;;4792907;29;20054;-68
2022/07/01 06:06:08;;;;;;;10.27;4.30;;;;;;;;;;4823326;29;20074;-68
2022/07/01 06:08:38;;;;;;;13.07;4.85;;;;;;;;;;4792686;29;20064;-68
2022/07/01 06:11:08;;;;;;;11.43;5.18;;;;;;;;;;4837998;29;20057;-68
2022/07/01 06:13:39;;;;;;;12.55;4.65;;;;;;;;;;4837921;29;20054;-68
2022/07/01 06:16:10;;;;;;;9.93;5.20;;;;;;;;;;4841138;29;20106;-68
2022/07/01 06:18:40;;;;;;;9.07;4.38;;;;;;;;;;4829048;29;20541;-68
2022/07/01 06:21:10;;;;;;;10.38;3.78;;;;;;;;;;4859770;29;20117;-68
2022/07/01 06:23:41;;;;;;;9.15;3.75;;;;;;;;;;4874923;29;20068;-68
2022/07/01 06:26:11;;;;;;;8.52;4.18;;;;;;;;;;4874825;29;20057;-68
2022/07/01 06:28:42;;;;;;;9.68;5.03;;;;;;;;;;4874842;29;20557;-68
2022/07/01 06:31:13;;;;;;;8.32;4.05;;;;;;;;;;4874930;29;20049;-68
2022/07/01 06:33:43;;;;;;;8.18;3.35;;;;;;;;;;4844019;29;20709;-68
2022/07/01 06:36:14;;;;;;;9.90;4.10;;;;;;;;;;4877607;29;20076;-68
2022/07/01 06:38:44;;;;;;;8.02;3.95;;;;;;;;;;4880501;29;20052;-68
2022/07/01 06:41:26;;;;;;;10.23;4.28;;;;;;;;;;4880373;29;20049;-68
2022/07/01 06:44:00;;;;;;;10.93;4.32;;;;;;;;;;4862750;29;20060;-68
2022/07/01 06:46:31;;;;;;;10.57;4.22;;;;;;;;;;4843910;29;20050;-68
2022/07/01 06:49:01;;;;;;;7.75;3.80;;;;;;;;;;4859080;29;20054;-68
2022/07/01 06:51:32;;;;;;;7.55;3.20;;;;;;;;;;4859365;29;20057;-68
2022/07/01 06:54:03;;;;;;;15.68;3.97;;;;;;;;;;4828567;29;20062;-68
2022/07/01 06:56:33;;;;;;;10.10;4.07;;;;;;;;;;4828477;29;20407;-68
2022/07/01 06:59:03;;;;;;;10.93;4.65;;;;;;;;;;4859178;29;20075;-68
2022/07/01 07:01:33;;;;;;;12.25;4.97;;;;;;;;;;4859179;29;20057;-68
2022/07/01 07:04:04;;;;;;;12.35;5.43;;;;;;;;;;4858997;29;20541;-68
2022/07/01 07:06:35;;;;;;;15.57;6.95;;;;;;;;;;4822013;29;20070;-68
2022/07/01 07:09:05;;;;;;;15.10;6.35;;;;;;;;;;4777207;29;20069;-68
2022/07/01 07:11:35;;;;;;;16.58;6.13;;;;;;;;;;4803934;29;20047;-68
2022/07/01 07:14:05;;;;;;;17.70;6.90;;;;;;;;;;4788738;29;20563;-68
2022/07/01 07:16:36;;;;;;;15.45;6.70;;;;;;;;;;4803880;29;20087;-68
2022/07/01 07:19:07;;;;;;;12.93;6.30;;;;;;;;;;4803898;29;20058;-68
2022/07/01 07:21:37;;;;;;;17.75;7.13;;;;;;;;;;4759835;29;20051;-68
2022/07/01 07:24:08;;;;;;;19.38;6.43;;;;;;;;;;4803970;29;20066;-68
2022/07/01 07:26:41;;;;;;;13.18;5.80;;;;;;;;;;4804177;29;20069;-68
2022/07/01 07:29:12;;;;;;;16.75;6.90;;;;;;;;;;4803928;29;20059;-68
2022/07/01 07:31:43;;;;;;;17.45;6.53;;;;;;;;;;4804027;29;20075;-68
2022/07/01 07:34:13;;;;;;;14.32;5.68;;;;;;;;;;4788705;29;20063;-68
2022/07/01 07:36:43;;;;;;;14.82;6.60;;;;;;;;;;4776570;29;20065;-68
2022/07/01 07:39:13;;;;;;;14.60;6.03;;;;;;;;;;4839997;29;20050;-69
2022/07/01 07:41:44;;;;;;;19.52;7.68;;;;;;;;;;4839995;29;20063;-69
2022/07/01 07:44:14;;;;;;;14.32;6.97;;;;;;;;;;4839968;29;20073;-68
2022/07/01 07:46:44;;;;;;;17.83;6.80;;;;;;;;;;4839762;29;20119;-68
2022/07/01 07:49:14;;;;;;;13.93;6.63;;;;;;;;;;4859892;29;20060;-68
2022/07/01 07:51:45;;;;;;;16.15;6.18;;;;;;;;;;4879123;29;20111;-68
2022/07/01 07:54:16;;;;;;;17.27;6.70;;;;;;;;;;4878996;29;20490;-68
2022/07/01 07:56:46;;;;;;;13.95;6.13;;;;;;;;;;4846359;29;20057;-68
2022/07/01 07:59:16;;;;;;;14.77;6.00;;;;;;;;;;4878874;29;20517;-68
2022/07/01 08:01:47;;;;;;;11.25;4.65;;;;;;;;;;4878906;29;20080;-69
2022/07/01 08:04:17;;;;;;;10.07;4.88;;;;;;;;;;4861600;29;20084;-68
2022/07/01 08:06:48;;;;;;;13.82;4.78;;;;;;;;;;4878887;29;20065;-68
2022/07/01 08:09:18;;;;;;;10.82;4.97;;;;;;;;;;4878834;29;20675;-68
2022/07/01 08:11:48;;;;;;;11.70;5.07;;;;;;;;;;4878759;29;20402;-68
2022/07/01 08:14:19;;;;;;;13.07;5.18;;;;;;;;;;4857809;29;20049;-69
2022/07/01 08:16:51;;;;;;;9.27;4.53;;;;;;;;;;4857905;29;20061;-69
2022/07/01 08:19:22;;;;;;;10.27;4.43;;;;;;;;;;4857714;29;20054;-68
2022/07/01 08:21:52;;;;;;;13.80;5.28;;;;;;;;;;4857658;29;20053;-69
2022/07/01 08:24:22;;;;;;;11.07;5.15;;;;;;;;;;4827197;29;20061;-68
2022/07/01 08:26:53;;;;;;;12.90;5.55;;;;;;;;;;4857731;29;20545;-68
2022/07/01 08:29:23;;;;;;;15.07;6.43;;;;;;;;;;4782612;29;20049;-68
2022/07/01 08:31:53;;;;;;;13.65;5.85;;;;;;;;;;4827420;29;20632;-67
2022/07/01 08:34:23;;;;;;;13.80;5.82;;;;;;;;;;4857738;29;20054;-68
2022/07/01 08:36:53;;;;;;;14.93;5.82;;;;;;;;;;4827008;29;20053;-68
2022/07/01 08:39:24;;;;;;;13.48;5.63;;;;;;;;;;4857515;29;20053;-68
2022/07/01 08:41:55;;;;;;;11.82;5.38;;;;;;;;;;4857354;29;20506;-68
2022/07/01 08:44:26;;;;;;;12.68;5.30;;;;;;;;;;4857302;29;20053;-68
2022/07/01 08:46:56;;;;;;;12.85;4.72;;;;;;;;;;4857380;29;20425;-68
2022/07/01 08:49:27;;;;;;;12.73;5.68;;;;;;;;;;4857203;29;20057;-68
2022/07/01 08:51:57;;;;;;;15.95;7.10;;;;;;;;;;4866904;29;20060;-68
2022/07/01 08:54:27;;;;;;;13.30;6.00;;;;;;;;;;4875707;29;20068;-68
2022/07/01 08:56:58;;;;;;;12.52;5.40;;;;;;;;;;4875810;29;20061;-68
2022/07/01 08:59:28;;;;;;;10.32;5.05;;;;;;;;;;4875219;29;20064;-68
2022/07/01 09:02:01;;;;;;;10.88;4.57;;;;;;;;;;4875534;29;20064;-67
2022/07/01 09:04:33;;;;;;;11.55;3.78;;;;;;;;;;4875729;29;20452;-67
2022/07/01 09:07:10;;;;;;;12.05;4.20;;;;;;;;;;4875412;29;20064;-67
2022/07/01 09:09:42;;;;;;;9.75;3.72;;;;;;;;;;4856705;29;20061;-73
2022/07/01 09:12:12;;;;;;;11.13;3.95;;;;;;;;;;4827418;29;20050;-70
2022/07/01 09:14:42;;;;;;;11.80;4.57;;;;;;;;;;4838130;29;20068;-68
2022/07/01 09:17:20;;;;;;;9.38;4.15;;;;;;;;;;4838490;29;20525;-70
2022/07/01 09:19:51;;;;;;;9.82;4.20;;;;;;;;;;4838448;29;20069;-67
2022/07/01 09:22:21;;;;;;;10.45;4.15;;;;;;;;;;4838142;29;20081;-69
2022/07/01 09:24:52;;;;;;;10.65;4.43;;;;;;;;;;4793351;29;20062;-70
2022/07/01 09:27:26;;;;;;;9.95;3.88;;;;;;;;;;4838193;29;20533;-69
2022/07/01 09:29:57;;;;;;;11.82;3.90;;;;;;;;;;4838414;29;20098;-67
2022/07/01 09:32:27;;;;;;;7.97;4.07;;;;;;;;;;4793101;29;20065;-67
2022/07/01 09:34:58;;;;;;;8.20;3.53;;;;;;;;;;4838380;29;20062;-67
2022/07/01 09:37:29;;;;;;;8.90;4.13;;;;;;;;;;4807801;29;20058;-67
2022/07/01 09:40:00;;;;;;;9.70;4.03;;;;;;;;;;4841028;29;20057;-67
2022/07/01 09:42:30;;;;;;;8.77;3.55;;;;;;;;;;4810848;29;20074;-67
2022/07/01 09:45:10;;;;;;;10.85;4.22;;;;;;;;;;4820075;29;20164;-67
2022/07/01 09:47:43;;;;;;;11.60;3.90;;;;;;;;;;4820106;29;20059;-68
2022/07/01 09:50:13;;;;;;;8.93;4.30;;;;;;;;;;4819861;29;20063;-67
2022/07/01 09:52:44;;;;;;;9.43;3.38;;;;;;;;;;4831915;29;20431;-67
2022/07/01 09:55:15;;;;;;;8.10;3.95;;;;;;;;;;4838002;29;20053;-67
2022/07/01 09:57:45;;;;;;;9.05;4.22;;;;;;;;;;4838010;29;20066;-67
2022/07/01 10:00:15;;;;;;;11.30;5.15;;;;;;;;;;4838178;29;20551;-67
2022/07/01 10:02:47;;;;;;;11.70;5.00;;;;;;;;;;4819604;29;20058;-67
2022/07/01 10:05:21;;;;;;;11.60;5.43;;;;;;;;;;4820011;29;20562;-68
2022/07/01 10:07:58;;;;;;;11.45;5.25;;;;;;;;;;4819897;29;20066;-68
2022/07/01 10:10:49;;;;;;;11.40;5.28;;;;;;;;;;4822085;29;20050;-69
2022/07/01 10:13:25;;;;;;;14.23;5.60;;;;;;;;;;4792913;29;20061;-69
2022/07/01 10:15:56;;;;;;;11.95;5.60;;;;;;;;;;4792852;29;20062;-69
2022/07/01 10:18:28;;;;;;;11.90;5.32;;;;;;;;;;4822921;29;20070;-68
2022/07/01 10:20:59;;;;;;;13.88;6.97;;;;;;;;;;4822780;29;20407;-70
2022/07/01 10:23:39;;;;;;;15.32;5.93;;;;;;;;;;4838969;29;20061;-69
2022/07/01 10:26:13;;;;;;;13.52;6.35;;;;;;;;;;4799581;29;20088;-69
2022/07/01 10:28:52;;;;;;;14.05;6.38;;;;;;;;;;4829011;29;20054;-69
2022/07/01 10:31:37;;;;;;;13.20;5.57;;;;;;;;;;4841283;29;20050;-68
2022/07/01 10:34:10;;;;;;;11.40;5.45;;;;;;;;;;4848113;29;20060;-68
2022/07/01 10:36:40;;;;;;;12.52;5.65;;;;;;;;;;4880503;29;20052;-69
2022/07/01 10:39:13;;;;;;;12.80;5.50;;;;;;;;;;4894721;29;20053;-69
2022/07/01 10:41:53;;;;;;;12.88;5.70;;;;;;;;;;4879209;29;20413;-69
2022/07/01 10:45:10;;;;;;;12.35;5.85;;;;;;;;;;4880133;29;20052;-69
2022/07/01 10:47:41;;;;;;;15.70;6.80;;;;;;;;;;4862881;29;20061;-69
2022/07/01 10:50:16;;;;;;;14.90;5.78;;;;;;;;;;4863046;29;20060;-69
2022/07/01 10:53:05;;;;;;;12.55;5.72;;;;;;;;;;4880376;29;20060;-69
2022/07/01 10:55:41;;;;;;;12.73;5.32;;;;;;;;;;4862846;29;20096;-68
2022/07/01 10:58:11;;;;;;;17.70;6.03;;;;;;;;;;4880094;29;20406;-68
2022/07/01 11:00:46;;;;;;;13.85;6.00;;;;;;;;;;4862823;29;20065;-68
2022/07/01 11:03:22;;;;;;;14.93;6.22;;;;;;;;;;4847232;29;20084;-68
2022/07/01 11:05:58;;;;;;;16.75;6.28;;;;;;;;;;4877993;29;20049;-68
2022/07/01 11:08:28;;;;;;;12.68;6.53;;;;;;;;;;4879803;29;20049;-68
2022/07/01 11:11:05;;;;;;;13.60;6.10;;;;;;;;;;4879868;29;20067;-68
2022/07/01 11:13:36;;;;;;;16.20;6.30;;;;;;;;;;4847268;29;20525;-68
2022/07/01 11:16:06;;;;;;;17.23;6.43;;;;;;;;;;4880005;29;20060;-68
2022/07/01 11:18:38;;;;;;;18.50;7.03;;;;;;;;;;4879605;29;20056;-68
2022/07/01 11:21:10;;;;;;;24.40;8.02;;;;;;;;;;4878078;29;20041;-68
2022/07/01 11:23:52;;;;;;;21.88;7.35;;;;;;;;;;4879457;29;20088;-68
2022/07/01 11:26:26;;;;;;;20.70;7.95;;;;;;;;;;4878519;29;20049;-68
2022/07/01 11:28:56;;;;;;;21.40;9.23;;;;;;;;;;4831381;29;20521;-68
2022/07/01 11:31:31;;;;;;;20.58;9.02;;;;;;;;;;4879465;29;20053;-68
2022/07/01 11:34:03;;;;;;;23.00;10.13;;;;;;;;;;4878322;29;20055;-68
2022/07/01 11:39:23;;;;;;;19.70;8.65;;;;;;;;;;4879386;29;20049;-68
2022/07/01 11:41:54;;;;;;;21.85;9.13;;;;;;;;;;4879297;29;20068;-68
2022/07/01 11:44:41;;;;;;;22.50;10.18;;;;;;;;;;4879199;29;20049;-68
2022/07/01 11:47:24;;;;;;;19.92;9.10;;;;;;;;;;4861819;29;20076;-68
2022/07/01 11:49:56;;;;;;;17.65;8.27;;;;;;;;;;4879325;29;20053;-69
2022/07/01 11:52:27;;;;;;;21.25;8.85;;;;;;;;;;4879159;29;20045;-68
2022/07/01 11:54:58;;;;;;;16.70;8.18;;;;;;;;;;4861594;29;20524;-69
2022/07/01 11:57:52;;;;;;;19.83;8.57;;;;;;;;;;4879136;29;20053;-69
2022/07/01 12:00:23;;;;;;;19.33;9.30;;;;;;;;;;4878867;29;20049;-69
2022/07/01 12:02:53;;;;;;;20.23;8.85;;;;;;;;;;4861577;29;20061;-69
2022/07/01 12:05:24;;;;;;;21.45;9.90;;;;;;;;;;4845953;29;20061;-69
2022/07/01 12:07:55;;;;;;;25.95;11.80;;;;;;;;;;4845948;29;20087;-69
2022/07/01 12:10:26;;;;;;;42.15;18.05;;;;;;;;;;4830592;29;20064;-69
2022/07/01 12:12:57;;;;;;;29.55;14.75;;;;;;;;;;4861714;29;20060;-69
2022/07/01 12:15:28;;;;;;;50.60;20.02;;;;;;;;;;4876399;29;20065;-69
2022/07/01 12:18:08;;;;;;;72.72;33.15;;;;;;;;;;4876321;29;20052;-69
2022/07/01 12:20:38;;;;;;;42.85;18.77;;;;;;;;;;4860949;29;20076;-69
2022/07/01 12:23:12;;;;;;;26.63;13.50;;;;;;;;;;4830483;29;20429;-69
2022/07/01 12:25:54;;;;;;;25.88;12.80;;;;;;;;;;4875942;29;20466;-69
2022/07/01 12:28:30;;;;;;;28.05;13.25;;;;;;;;;;4839293;29;20507;-69
2022/07/01 12:31:08;;;;;;;28.65;14.00;;;;;;;;;;4793667;29;20065;-69
2022/07/01 12:33:49;;;;;;;31.30;14.70;;;;;;;;;;4807875;29;20061;-70
2022/07/01 12:36:20;;;;;;;52.53;23.40;;;;;;;;;;4820647;29;20496;-69
2022/07/01 12:39:06;;;;;;;27.00;12.07;;;;;;;;;;4820894;29;20058;-69
2022/07/01 12:41:38;;;;;;;42.85;20.52;;;;;;;;;;4830649;29;20423;-69
2022/07/01 12:44:25;;;;;;;30.83;12.57;;;;;;;;;;4838767;29;20503;-68
2022/07/01 12:46:56;;;;;;;55.78;23.67;;;;;;;;;;4838660;29;20462;-69
2022/07/01 12:49:26;;;;;;;33.75;13.13;;;;;;;;;;4823545;29;20062;-68
2022/07/01 12:51:57;;;;;;;32.55;14.95;;;;;;;;;;4838996;29;20058;-69
2022/07/01 12:54:36;;;;;;;19.67;9.32;;;;;;;;;;4808276;29;20447;-69
2022/07/01 12:57:07;;;;;;;31.73;16.73;;;;;;;;;;4838838;29;20076;-69
2022/07/01 12:59:37;;;;;;;41.38;21.80;;;;;;;;;;4808426;29;20061;-69
2022/07/01 13:02:08;;;;;;;27.67;12.63;;;;;;;;;;4838804;29;20069;-69
2022/07/01 13:04:38;;;;;;;22.13;10.93;;;;;;;;;;4838487;29;20053;-69
2022/07/01 13:07:10;;;;;;;23.25;11.63;;;;;;;;;;4856576;29;20447;-69
2022/07/01 13:09:40;;;;;;;26.02;11.60;;;;;;;;;;4856747;29;20410;-69
2022/07/01 13:12:11;;;;;;;18.50;8.75;;;;;;;;;;4857023;29;20057;-69
2022/07/01 13:14:41;;;;;;;17.67;8.77;;;;;;;;;;4873467;29;20064;-69
2022/07/01 13:17:11;;;;;;;56.35;25.45;;;;;;;;;;4844970;29;20061;-69
2022/07/01 13:19:42;;;;;;;18.92;10.70;;;;;;;;;;4877781;29;20041;-69
2022/07/01 13:22:12;;;;;;;18.48;7.72;;;;;;;;;;4844873;29;20061;-69
2022/07/01 13:24:42;;;;;;;16.90;8.73;;;;;;;;;;4844549;29;20053;-70
2022/07/01 13:27:13;;;;;;;15.57;7.95;;;;;;;;;;4875148;29;20063;-69
2022/07/01 13:29:43;;;;;;;14.52;7.30;;;;;;;;;;4875381;29;20061;-69
2022/07/01 13:32:14;;;;;;;15.52;7.82;;;;;;;;;;4875350;29;20522;-69
2022/07/01 13:34:44;;;;;;;16.77;8.35;;;;;;;;;;4856377;29;20058;-70
2022/07/01 13:37:14;;;;;;;49.28;22.65;;;;;;;;;;4856619;29;20065;-69
2022/07/01 13:39:45;;;;;;;18.55;9.98;;;;;;;;;;4856443;29;20065;-69
2022/07/01 13:42:15;;;;;;;14.68;7.72;;;;;;;;;;4841119;29;20065;-69
2022/07/01 13:44:46;;;;;;;20.80;10.80;;;;;;;;;;4857855;29;20635;-69
2022/07/01 13:47:17;;;;;;;33.33;16.50;;;;;;;;;;4860369;29;20194;-69
2022/07/01 13:49:47;;;;;;;16.45;8.98;;;;;;;;;;4860256;29;20083;-69
2022/07/01 13:52:17;;;;;;;17.55;7.80;;;;;;;;;;4860187;29;20421;-70
2022/07/01 13:54:49;;;;;;;19.25;8.88;;;;;;;;;;4830234;29;20065;-69
2022/07/01 13:57:20;;;;;;;13.35;7.60;;;;;;;;;;4829981;29;20073;-69
2022/07/01 13:59:50;;;;;;;14.93;7.18;;;;;;;;;;4859972;29;20522;-70
2022/07/01 14:02:21;;;;;;;18.20;8.60;;;;;;;;;;4860505;29;20495;-70
2022/07/01 14:04:51;;;;;;;13.45;7.10;;;;;;;;;;4815519;29;20065;-70
2022/07/01 14:07:22;;;;;;;23.02;7.82;;;;;;;;;;4815304;29;20558;-70
2022/07/01 14:09:52;;;;;;;45.08;22.58;;;;;;;;;;4860144;29;20056;-70
2022/07/01 14:12:22;;;;;;;27.05;12.52;;;;;;;;;;4868943;29;20061;-71
2022/07/01 14:14:57;;;;;;;18.98;9.73;;;;;;;;;;4878397;29;20091;-70
2022/07/01 14:17:28;;;;;;;15.73;8.73;;;;;;;;;;4878531;29;20056;-70
2022/07/01 14:19:58;;;;;;;14.52;7.30;;;;;;;;;;4878199;29;20044;-71
2022/07/01 14:22:28;;;;;;;23.92;11.55;;;;;;;;;;4862641;29;20057;-71
2022/07/01 14:24:59;;;;;;;11.70;6.53;;;;;;;;;;4878205;29;20157;-70
2022/07/01 14:27:29;;;;;;;34.63;16.02;;;;;;;;;;4847449;29;20740;-70
2022/07/01 14:29:59;;;;;;;12.95;5.97;;;;;;;;;;4848054;29;20065;-71
2022/07/01 14:32:29;;;;;;;7.85;3.83;;;;;;;;;;4878306;29;20521;-70
2022/07/01 14:35:01;;;;;;;7.50;4.22;;;;;;;;;;4862875;29;20512;-71
2022/07/01 14:37:31;;;;;;;7.28;4.40;;;;;;;;;;4859364;29;20056;-71
2022/07/01 14:40:01;;;;;;;16.73;7.22;;;;;;;;;;4844441;29;20064;-71
2022/07/01 14:42:32;;;;;;;6.55;3.40;;;;;;;;;;4814525;29;20062;-71
2022/07/01 14:45:03;;;;;;;6.00;3.38;;;;;;;;;;4859472;29;20064;-71
2022/07/01 14:47:34;;;;;;;6.25;2.65;;;;;;;;;;4813938;29;20062;-71
2022/07/01 14:50:04;;;;;;;5.13;2.53;;;;;;;;;;4849294;29;20065;-71
2022/07/01 14:52:34;;;;;;;5.18;2.28;;;;;;;;;;4840944;29;20188;-70
2022/07/01 14:55:06;;;;;;;4.80;2.65;;;;;;;;;;4840577;29;20406;-70
2022/07/01 14:57:37;;;;;;;7.38;2.70;;;;;;;;;;4848879;29;20110;-69
2022/07/01 15:00:09;;;;;;;7.13;2.67;;;;;;;;;;4844266;29;20046;-70
2022/07/01 15:02:39;;;;;;;5.15;2.38;;;;;;;;;;4859340;29;20062;-70
2022/07/01 15:05:11;;;;;;;5.97;2.72;;;;;;;;;;4859207;29;20080;-70
2022/07/01 15:07:41;;;;;;;4.82;2.20;;;;;;;;;;4859043;29;20061;-71